createdAt,value
2023-10-02T00:00:10.512Z,5.55
2023-10-02T00:05:32.218Z,5.40
2023-10-02T00:10:53.936Z,5.00
2023-10-02T00:16:15.724Z,5.57
2023-10-02T00:21:37.447Z,5.78
2023-10-02T00:26:59.936Z,5.00
2023-10-02T00:32:21.751Z,5.53
2023-10-02T00:37:44.815Z,5.05
2023-10-02T00:43:06.682Z,5.72
2023-10-02T00:48:29.918Z,5.75
2023-10-02T00:53:52.144Z,5.43
2023-10-02T00:59:13.957Z,5.93
2023-10-02T01:04:35.845Z,5.63
2023-10-02T01:09:57.679Z,5.97
2023-10-02T01:15:22.625Z,6.63
2023-10-02T01:20:50.394Z,5.28
2023-10-02T01:26:12.259Z,5.47
2023-10-02T01:31:34.984Z,6.40
2023-10-02T01:36:56.776Z,13.65
2023-10-02T01:42:18.552Z,26.85
2023-10-02T01:47:40.380Z,18.92
2023-10-02T01:53:05.390Z,22.58
2023-10-02T01:58:29.011Z,19.20
2023-10-02T02:03:52.014Z,17.70
2023-10-02T02:09:13.872Z,18.60
2023-10-02T02:14:39.980Z,14.77
2023-10-02T02:20:01.792Z,12.20
2023-10-02T02:25:23.557Z,10.77
2023-10-02T02:30:45.267Z,11.55
2023-10-02T02:36:07.366Z,13.30
2023-10-02T02:41:29.219Z,12.15
2023-10-02T02:46:50.952Z,11.65
2023-10-02T02:52:12.662Z,11.27
2023-10-02T02:57:35.556Z,9.40
2023-10-02T03:03:00.849Z,8.88
2023-10-02T03:08:22.621Z,8.48
2023-10-02T03:13:44.407Z,9.20
2023-10-02T03:19:06.238Z,8.88
2023-10-02T03:24:27.955Z,7.65
2023-10-02T03:29:49.676Z,7.82
2023-10-02T03:35:11.516Z,6.93
2023-10-02T03:40:33.288Z,6.45
2023-10-02T03:45:59.675Z,7.47
2023-10-02T03:51:21.415Z,7.78
2023-10-02T03:56:43.108Z,6.47
2023-10-02T04:02:05.266Z,7.15
2023-10-02T04:07:27.011Z,7.25
2023-10-02T04:12:48.734Z,7.50
2023-10-02T04:18:10.429Z,7.75
2023-10-02T04:23:32.140Z,7.57
2023-10-02T04:28:55.807Z,8.60
2023-10-02T04:34:17.706Z,7.53
2023-10-02T04:39:39.477Z,8.60
2023-10-02T04:45:01.235Z,9.30
2023-10-02T04:50:23.122Z,9.48
2023-10-02T04:55:45.488Z,7.65
2023-10-02T05:01:07.675Z,7.88
2023-10-02T05:06:30.196Z,7.35
2023-10-02T05:11:53.077Z,8.10
2023-10-02T05:17:15.240Z,7.85
2023-10-02T05:22:37.107Z,7.43
2023-10-02T05:27:58.851Z,7.20
2023-10-02T05:33:20.581Z,7.18
2023-10-02T05:38:42.285Z,7.20
2023-10-02T05:44:04.262Z,7.28
2023-10-02T05:49:26.062Z,7.90
2023-10-02T05:54:49.337Z,7.93
2023-10-02T06:00:11.674Z,7.60
2023-10-02T06:05:33.390Z,7.53
2023-10-02T06:10:55.129Z,8.73
2023-10-02T06:16:16.874Z,7.88
2023-10-02T06:21:38.648Z,7.43
2023-10-02T06:27:00.465Z,7.78
2023-10-02T06:32:22.233Z,7.60
2023-10-02T06:37:44.042Z,6.97
2023-10-02T06:43:05.816Z,7.53
2023-10-02T06:48:27.554Z,7.47
2023-10-02T06:53:49.289Z,7.45
2023-10-02T06:59:11.051Z,6.82
2023-10-02T07:04:32.992Z,6.57
2023-10-02T07:09:57.032Z,7.35
2023-10-02T07:15:18.762Z,6.38
2023-10-02T07:20:43.684Z,7.68
2023-10-02T07:26:06.534Z,7.68
2023-10-02T07:31:28.384Z,6.68
2023-10-02T07:36:50.127Z,6.82
2023-10-02T07:42:11.975Z,7.10
2023-10-02T07:47:33.854Z,6.90
2023-10-02T07:52:55.721Z,7.40
2023-10-02T07:58:17.502Z,7.57
2023-10-02T08:03:40.558Z,6.95
2023-10-02T08:09:05.225Z,7.03
2023-10-02T08:14:26.942Z,6.45
2023-10-02T08:19:53.439Z,6.38
2023-10-02T08:25:16.028Z,6.68
2023-10-02T08:30:38.229Z,6.85
2023-10-02T08:36:01.051Z,6.53
2023-10-02T08:41:22.856Z,6.50
2023-10-02T08:46:45.207Z,6.38
2023-10-02T08:52:11.663Z,6.38
2023-10-02T08:57:58.157Z,5.95
2023-10-02T09:03:32.176Z,6.70
2023-10-02T09:08:54.664Z,6.20
2023-10-02T09:14:16.420Z,6.03
2023-10-02T09:19:38.222Z,6.30
2023-10-02T09:25:12.755Z,6.40
2023-10-02T09:30:34.459Z,5.53
2023-10-02T09:36:29.906Z,5.85
2023-10-02T09:41:39.669Z,4.85
2023-10-02T09:47:01.640Z,5.05
2023-10-02T09:52:29.624Z,4.72
2023-10-02T09:57:55.084Z,5.20
2023-10-02T10:03:22.939Z,5.13
2023-10-02T10:09:07.856Z,4.70
2023-10-02T10:14:29.525Z,4.63
2023-10-02T10:19:57.097Z,4.50
2023-10-02T10:25:21.878Z,3.95
2023-10-02T10:30:50.276Z,3.60
2023-10-02T10:36:34.766Z,3.20
2023-10-02T10:42:01.589Z,2.95
2023-10-02T10:47:38.829Z,3.10
2023-10-02T10:53:01.520Z,3.13
2023-10-02T10:58:31.257Z,2.72
2023-10-02T11:04:03.027Z,3.30
2023-10-02T11:09:24.962Z,2.78
2023-10-02T11:14:46.692Z,3.35
2023-10-02T11:20:09.058Z,3.25
2023-10-02T11:25:30.995Z,3.28
2023-10-02T11:30:52.843Z,2.65
2023-10-02T11:36:14.578Z,2.90
2023-10-02T11:41:40.320Z,2.83
2023-10-02T11:47:02.150Z,3.97
2023-10-02T11:52:24.206Z,4.15
2023-10-02T11:57:46.973Z,3.22
2023-10-02T12:03:08.804Z,3.10
2023-10-02T12:08:30.659Z,3.35
2023-10-02T12:13:53.239Z,2.92
2023-10-02T12:19:14.987Z,3.42
2023-10-02T12:24:38.247Z,2.80
2023-10-02T12:30:00.403Z,2.67
2023-10-02T12:35:22.178Z,2.80
2023-10-02T12:40:43.986Z,2.65
2023-10-02T12:46:05.733Z,2.30
2023-10-02T12:51:29.768Z,2.40
2023-10-02T12:56:51.507Z,3.17
2023-10-02T13:02:13.187Z,2.00
2023-10-02T13:07:35.006Z,2.95
2023-10-02T13:12:56.746Z,3.35
2023-10-02T13:18:18.814Z,2.70
2023-10-02T13:23:41.077Z,2.75
2023-10-02T13:29:03.047Z,3.22
2023-10-02T13:34:24.918Z,2.92
2023-10-02T13:39:46.706Z,2.70
2023-10-02T13:45:08.926Z,2.42
2023-10-02T13:50:33.293Z,2.67
2023-10-02T13:55:55.163Z,3.05
2023-10-02T14:01:21.769Z,2.85
2023-10-02T14:06:43.607Z,2.95
2023-10-02T14:12:05.674Z,3.72
2023-10-02T14:17:27.497Z,3.50
2023-10-02T14:22:49.301Z,3.25
2023-10-02T14:28:11.002Z,2.83
2023-10-02T14:33:35.254Z,2.67
2023-10-02T14:38:57.465Z,2.72
2023-10-02T14:44:19.273Z,2.55
2023-10-02T14:49:41.181Z,2.65
2023-10-02T14:55:02.940Z,2.88
2023-10-02T15:00:25.839Z,2.92
2023-10-02T15:05:47.581Z,2.65
2023-10-02T15:11:09.447Z,2.70
2023-10-02T15:16:31.274Z,2.75
2023-10-02T15:21:53.034Z,2.33
2023-10-02T15:27:14.768Z,2.65
2023-10-02T15:32:36.512Z,2.45
2023-10-02T15:37:58.973Z,2.85
2023-10-02T15:43:20.734Z,3.03
2023-10-02T15:48:42.453Z,2.45
2023-10-02T15:54:04.411Z,2.78
2023-10-02T15:59:26.151Z,2.78
2023-10-02T16:04:51.822Z,2.35
2023-10-02T16:10:14.366Z,2.83
2023-10-02T16:15:36.546Z,2.33
2023-10-02T16:20:58.638Z,3.45
2023-10-02T16:26:24.110Z,3.53
2023-10-02T16:31:45.847Z,2.77
2023-10-02T16:37:07.664Z,2.67
2023-10-02T16:42:29.441Z,2.70
2023-10-02T16:47:51.249Z,2.83
2023-10-02T16:53:13.003Z,2.40
2023-10-02T16:58:35.432Z,2.83
2023-10-02T17:03:57.309Z,2.50
2023-10-02T17:09:19.319Z,2.75
2023-10-02T17:14:41.048Z,3.00
2023-10-02T17:20:02.919Z,2.88
2023-10-02T17:25:24.812Z,2.80
2023-10-02T17:30:46.515Z,2.90
2023-10-02T17:36:08.243Z,2.95
2023-10-02T17:41:30.023Z,3.15
2023-10-02T17:46:51.799Z,3.28
2023-10-02T17:52:13.557Z,2.72
2023-10-02T17:57:35.431Z,3.45
2023-10-02T18:02:57.488Z,3.60
2023-10-02T18:08:19.406Z,3.60
2023-10-02T18:13:41.160Z,3.78
2023-10-02T18:19:03.054Z,4.68
2023-10-02T18:24:25.057Z,4.93
2023-10-02T18:29:46.896Z,4.20
2023-10-02T18:35:09.307Z,4.72
2023-10-02T18:40:31.092Z,4.45
2023-10-02T18:45:52.860Z,5.28
2023-10-02T18:51:18.198Z,5.65
2023-10-02T18:56:39.996Z,4.57
2023-10-02T19:02:01.786Z,4.35
2023-10-02T19:07:23.533Z,4.20
2023-10-02T19:12:45.230Z,3.92
2023-10-02T19:18:07.210Z,4.85
2023-10-02T19:23:29.043Z,4.25
2023-10-02T19:28:51.170Z,5.15
2023-10-02T19:34:13.077Z,4.07
2023-10-02T19:39:34.788Z,4.28
2023-10-02T19:44:56.486Z,4.78
2023-10-02T19:50:18.339Z,4.57
2023-10-02T19:55:40.319Z,4.85
2023-10-02T20:01:02.904Z,5.03
2023-10-02T20:06:25.029Z,5.47
2023-10-02T20:11:46.819Z,5.45
2023-10-02T20:17:08.589Z,5.80
2023-10-02T20:22:30.341Z,5.38
2023-10-02T20:27:52.483Z,5.13
2023-10-02T20:33:14.282Z,5.60
2023-10-02T20:38:36.357Z,5.65
2023-10-02T20:43:58.126Z,5.65
2023-10-02T20:49:20.431Z,5.55
2023-10-02T20:54:42.460Z,6.03
2023-10-02T21:00:04.658Z,5.22
2023-10-02T21:05:27.864Z,6.00
2023-10-02T21:10:52.574Z,6.25
2023-10-02T21:16:15.533Z,5.50
2023-10-02T21:21:37.386Z,5.90
2023-10-02T21:26:59.161Z,5.90
2023-10-02T21:32:20.907Z,5.43
2023-10-02T21:37:43.057Z,5.70
2023-10-02T21:43:04.879Z,5.72
2023-10-02T21:48:26.618Z,5.15
2023-10-02T21:53:48.371Z,6.03
2023-10-02T21:59:10.143Z,5.15
2023-10-02T22:04:31.859Z,6.57
2023-10-02T22:09:53.591Z,5.45
2023-10-02T22:15:15.353Z,5.75
2023-10-02T22:20:41.772Z,5.20
2023-10-02T22:26:03.525Z,5.97
2023-10-02T22:31:25.337Z,5.63
2023-10-02T22:36:47.057Z,5.22
2023-10-02T22:42:08.797Z,5.75
2023-10-02T22:47:30.634Z,5.85
2023-10-02T22:52:52.416Z,5.45
2023-10-02T22:58:14.134Z,5.97
2023-10-02T23:03:37.235Z,5.50
2023-10-02T23:08:59.071Z,6.20
2023-10-02T23:14:20.909Z,5.55
2023-10-02T23:19:42.676Z,5.15
2023-10-02T23:25:04.768Z,5.82
2023-10-02T23:30:26.520Z,5.25
2023-10-02T23:35:48.354Z,5.00
2023-10-02T23:41:10.390Z,5.63
2023-10-02T23:46:32.129Z,5.63
2023-10-02T23:51:53.917Z,5.50
2023-10-02T23:57:15.638Z,5.60
